createdAt,value
2019-06-07T00:00:42.878Z,13.00
2019-06-07T00:01:42.855Z,13.01
2019-06-07T00:02:42.859Z,13.00
2019-06-07T00:03:42.844Z,12.96
2019-06-07T00:04:42.903Z,13.01
2019-06-07T00:05:42.839Z,12.97
2019-06-07T00:06:42.798Z,12.90
2019-06-07T00:07:42.790Z,12.92
2019-06-07T00:08:42.779Z,12.79
2019-06-07T00:09:42.777Z,12.74
2019-06-07T00:10:42.770Z,12.75
2019-06-07T00:11:42.777Z,12.70
2019-06-07T00:12:42.731Z,12.67
2019-06-07T00:13:42.722Z,12.67
2019-06-07T00:14:42.712Z,12.62
2019-06-07T00:15:42.744Z,12.67
2019-06-07T00:16:42.695Z,12.65
2019-06-07T00:17:42.703Z,12.68
2019-06-07T00:18:42.671Z,12.56
2019-06-07T00:19:42.715Z,12.54
2019-06-07T00:20:42.761Z,12.57
2019-06-07T00:22:13.571Z,12.50
2019-06-07T00:22:43.630Z,12.49
2019-06-07T00:23:42.633Z,12.37
2019-06-07T00:24:42.612Z,12.45
2019-06-07T00:25:42.603Z,12.34
2019-06-07T00:26:57.845Z,12.32
2019-06-07T00:27:43.573Z,12.32
2019-06-07T00:28:42.601Z,12.21
2019-06-07T00:29:42.570Z,12.23
2019-06-07T00:30:51.777Z,12.16
2019-06-07T00:31:43.534Z,12.29
2019-06-07T00:32:42.530Z,12.28
2019-06-07T00:33:42.499Z,12.31
2019-06-07T00:34:42.491Z,12.19
2019-06-07T00:35:42.515Z,12.16
2019-06-07T00:36:42.499Z,11.98
2019-06-07T00:37:42.456Z,12.02
2019-06-07T00:38:42.452Z,11.98
2019-06-07T00:39:42.435Z,12.01
2019-06-07T00:40:42.420Z,11.94
2019-06-07T00:41:42.433Z,11.90
2019-06-07T00:42:42.435Z,11.83
2019-06-07T00:43:42.388Z,11.69
2019-06-07T00:44:42.377Z,11.76
2019-06-07T00:45:42.366Z,11.72
2019-06-07T00:46:42.354Z,11.61
2019-06-07T00:47:42.366Z,11.70
2019-06-07T00:48:42.330Z,11.73
2019-06-07T00:49:42.326Z,11.78
2019-06-07T00:50:42.309Z,11.86
2019-06-07T00:51:50.468Z,11.86
2019-06-07T00:53:14.013Z,11.86
2019-06-07T00:53:43.292Z,11.75
2019-06-07T00:54:42.263Z,11.78
2019-06-07T00:55:42.260Z,11.73
2019-06-07T00:56:42.240Z,11.70
2019-06-07T00:57:42.231Z,11.69
2019-06-07T00:58:42.231Z,11.64
2019-06-07T00:59:42.233Z,11.64
2019-06-07T01:00:42.191Z,11.58
2019-06-07T01:01:42.179Z,11.54
2019-06-07T01:02:42.194Z,11.54
2019-06-07T01:03:42.190Z,11.51
2019-06-07T01:04:42.151Z,11.47
2019-06-07T01:05:42.160Z,11.39
2019-06-07T01:06:42.152Z,11.42
2019-06-07T01:07:42.110Z,11.51
2019-06-07T01:08:42.107Z,11.47
2019-06-07T01:09:42.115Z,11.51
2019-06-07T01:10:53.086Z,11.47
2019-06-07T01:11:43.091Z,11.52
2019-06-07T01:12:42.056Z,11.51
2019-06-07T01:13:42.043Z,11.54
2019-06-07T01:14:42.080Z,11.51
2019-06-07T01:15:42.019Z,11.49
2019-06-07T01:16:56.758Z,11.40
2019-06-07T01:18:32.383Z,11.40
2019-06-07T01:18:46.578Z,11.35
2019-06-07T01:19:43.021Z,11.29
2019-06-07T01:20:41.990Z,11.24
2019-06-07T01:21:41.961Z,11.27
2019-06-07T01:22:41.957Z,11.18
2019-06-07T01:24:10.753Z,11.22
2019-06-07T01:24:42.918Z,11.14
2019-06-07T01:25:41.922Z,11.18
2019-06-07T01:26:41.906Z,11.24
2019-06-07T01:27:41.888Z,11.18
2019-06-07T01:28:41.873Z,11.11
2019-06-07T01:29:41.884Z,11.14
2019-06-07T01:30:41.849Z,11.02
2019-06-07T01:31:41.834Z,10.99
2019-06-07T01:32:41.822Z,11.03
2019-06-07T01:33:50.980Z,10.99
2019-06-07T01:34:42.795Z,10.86
2019-06-07T01:35:41.820Z,10.96
2019-06-07T01:36:41.801Z,11.00
2019-06-07T01:37:41.770Z,10.92
2019-06-07T01:38:41.750Z,10.92
2019-06-07T01:39:41.746Z,10.96
2019-06-07T01:40:41.735Z,10.99
2019-06-07T01:41:41.740Z,10.84
2019-06-07T01:42:41.741Z,10.92
2019-06-07T01:43:41.702Z,10.84
2019-06-07T01:44:41.684Z,10.89
2019-06-07T01:45:41.675Z,10.96
2019-06-07T01:46:41.663Z,10.91
2019-06-07T01:47:41.724Z,10.92
2019-06-07T01:48:49.392Z,10.84
2019-06-07T01:49:42.628Z,10.97
2019-06-07T01:50:41.627Z,10.86
2019-06-07T01:51:41.612Z,10.89
2019-06-07T01:52:41.632Z,10.84
2019-06-07T01:53:41.615Z,10.84
2019-06-07T01:54:56.597Z,10.86
2019-06-07T01:55:42.557Z,10.94
2019-06-07T01:56:41.543Z,10.84
2019-06-07T01:57:47.963Z,10.79
2019-06-07T01:58:42.532Z,10.91
2019-06-07T01:59:41.555Z,10.84
2019-06-07T02:00:41.501Z,10.78
2019-06-07T02:01:41.493Z,10.82
2019-06-07T02:02:41.484Z,10.73
2019-06-07T02:03:41.505Z,10.68
2019-06-07T02:04:41.460Z,10.70
2019-06-07T02:05:41.487Z,10.60
2019-06-07T02:06:41.435Z,10.66
2019-06-07T02:07:41.428Z,10.64
2019-06-07T02:08:41.446Z,10.67
2019-06-07T02:09:41.402Z,10.70
2019-06-07T02:10:41.396Z,10.79
2019-06-07T02:11:41.396Z,10.84
2019-06-07T02:12:43.542Z,10.76
2019-06-07T02:13:41.358Z,10.68
2019-06-07T02:14:41.377Z,10.73
2019-06-07T02:15:41.340Z,10.73
2019-06-07T02:16:41.329Z,10.73
2019-06-07T02:17:41.338Z,10.68
2019-06-07T02:19:00.560Z,10.63
2019-06-07T02:19:42.316Z,10.61
2019-06-07T02:20:41.326Z,10.66
2019-06-07T02:21:41.277Z,10.66
2019-06-07T02:22:41.253Z,10.66
2019-06-07T02:23:41.280Z,10.64
2019-06-07T02:24:41.236Z,10.71
2019-06-07T02:25:48.685Z,10.71
2019-06-07T02:26:42.214Z,10.68
2019-06-07T02:27:41.246Z,10.73
2019-06-07T02:28:45.663Z,10.60
2019-06-07T02:29:41.207Z,10.56
2019-06-07T02:30:58.033Z,10.45
2019-06-07T02:31:42.180Z,10.48
2019-06-07T02:32:41.152Z,10.41
2019-06-07T02:33:41.148Z,10.38
2019-06-07T02:34:41.173Z,10.36
2019-06-07T02:35:41.282Z,10.26
2019-06-07T02:36:41.845Z,10.23
2019-06-07T02:37:41.087Z,10.30
2019-06-07T02:38:41.084Z,10.23
2019-06-07T02:39:41.336Z,10.22
2019-06-07T02:40:41.063Z,10.27
2019-06-07T02:41:41.110Z,10.27
2019-06-07T02:42:42.611Z,10.20
2019-06-07T02:43:41.022Z,10.20
2019-06-07T02:44:41.075Z,10.23
2019-06-07T02:45:43.527Z,10.22
2019-06-07T02:46:49.090Z,10.18
2019-06-07T02:47:42.047Z,10.27
2019-06-07T02:48:40.968Z,10.20
2019-06-07T02:49:42.455Z,10.23
2019-06-07T02:50:40.974Z,10.22
2019-06-07T02:51:41.999Z,10.18
2019-06-07T02:52:41.744Z,10.12
2019-06-07T02:53:40.906Z,10.08
2019-06-07T02:54:41.115Z,10.14
2019-06-07T02:56:26.958Z,10.14
2019-06-07T02:56:56.203Z,10.27
2019-06-07T02:57:43.009Z,10.20
2019-06-07T02:58:42.035Z,10.26
2019-06-07T03:00:05.736Z,10.23
2019-06-07T03:01:00.533Z,10.25
2019-06-07T03:01:42.691Z,10.18
2019-06-07T03:02:41.632Z,10.12
2019-06-07T03:03:40.857Z,10.15
2019-06-07T03:04:44.059Z,10.11
2019-06-07T03:05:41.178Z,10.12
2019-06-07T03:06:43.927Z,10.08
2019-06-07T03:07:45.038Z,10.12
2019-06-07T03:08:41.773Z,10.17
2019-06-07T03:09:40.727Z,10.12
2019-06-07T03:10:41.981Z,10.07
2019-06-07T03:11:40.704Z,10.09
2019-06-07T03:12:40.730Z,10.15
2019-06-07T03:13:41.038Z,10.08
2019-06-07T03:14:40.685Z,10.11
2019-06-07T03:15:49.317Z,10.09
2019-06-07T03:16:41.644Z,10.11
2019-06-07T03:17:40.967Z,10.08
2019-06-07T03:18:41.698Z,10.09
2019-06-07T03:19:40.653Z,10.14
2019-06-07T03:20:40.602Z,10.09
2019-06-07T03:21:41.612Z,10.05
2019-06-07T03:22:41.620Z,10.22
2019-06-07T03:23:40.575Z,10.05
2019-06-07T03:24:42.279Z,10.18
2019-06-07T03:25:40.585Z,10.09
2019-06-07T03:27:30.426Z,10.09
2019-06-07T03:27:49.468Z,10.11
2019-06-07T03:28:41.514Z,10.08
2019-06-07T03:29:41.361Z,10.11
2019-06-07T03:30:58.151Z,10.05
2019-06-07T03:31:47.114Z,10.07
2019-06-07T03:32:47.239Z,10.08
2019-06-07T03:33:44.975Z,10.08
2019-06-07T03:34:43.530Z,10.08
2019-06-07T03:35:40.821Z,10.15
2019-06-07T03:36:40.459Z,10.25
2019-06-07T03:37:42.836Z,10.22
2019-06-07T03:38:40.395Z,10.22
2019-06-07T03:39:41.145Z,10.23
2019-06-07T03:40:40.382Z,10.22
2019-06-07T03:41:55.469Z,10.22
2019-06-07T03:42:41.368Z,10.26
2019-06-07T03:43:40.789Z,10.17
2019-06-07T03:44:41.469Z,10.23
2019-06-07T03:45:41.636Z,10.22
2019-06-07T03:46:41.421Z,10.29
2019-06-07T03:47:42.442Z,10.22
2019-06-07T03:48:41.537Z,10.17
2019-06-07T03:49:42.550Z,10.26
2019-06-07T03:50:42.423Z,10.14
2019-06-07T03:51:40.993Z,10.22
2019-06-07T03:52:41.665Z,10.22
2019-06-07T03:53:40.769Z,10.14
2019-06-07T03:54:40.253Z,10.20
2019-06-07T03:55:41.349Z,10.20
2019-06-07T03:56:41.011Z,10.18
2019-06-07T03:58:29.435Z,10.18
2019-06-07T03:58:49.639Z,10.22
2019-06-07T03:59:41.634Z,10.22
2019-06-07T04:00:43.132Z,10.29
2019-06-07T04:01:41.305Z,10.30
2019-06-07T04:02:42.038Z,10.26
2019-06-07T04:03:50.621Z,10.26
2019-06-07T04:04:41.104Z,10.23
2019-06-07T04:05:42.854Z,10.27
2019-06-07T04:06:42.609Z,10.33
2019-06-07T04:07:44.172Z,10.27
2019-06-07T04:08:42.133Z,10.23
2019-06-07T04:09:42.850Z,10.25
2019-06-07T04:10:54.913Z,10.18
2019-06-07T04:11:41.050Z,10.18
2019-06-07T04:12:43.703Z,10.33
2019-06-07T04:13:42.901Z,10.25
2019-06-07T04:14:42.582Z,10.27
2019-06-07T04:15:41.454Z,10.30
2019-06-07T04:16:44.173Z,10.23
2019-06-07T04:17:59.903Z,10.34
2019-06-07T04:18:42.468Z,10.23
2019-06-07T04:19:43.219Z,10.30
2019-06-07T04:20:41.480Z,10.32
2019-06-07T04:21:42.823Z,10.40
2019-06-07T04:22:42.602Z,10.36
2019-06-07T04:23:45.317Z,10.44
2019-06-07T04:24:42.091Z,10.44
2019-06-07T04:25:42.488Z,10.59
2019-06-07T04:26:43.608Z,10.66
2019-06-07T04:27:41.257Z,10.67
2019-06-07T04:29:30.488Z,10.67
2019-06-07T04:30:03.446Z,10.81
2019-06-07T04:30:41.836Z,10.81
2019-06-07T04:31:43.024Z,10.81
2019-06-07T04:32:44.662Z,10.89
2019-06-07T04:33:43.547Z,10.85
2019-06-07T04:34:42.887Z,10.94
2019-06-07T04:35:42.536Z,10.99
2019-06-07T04:36:55.309Z,11.09
2019-06-07T04:37:41.539Z,11.17
2019-06-07T04:38:40.731Z,11.21
2019-06-07T04:39:44.680Z,11.18
2019-06-07T04:40:42.809Z,11.17
2019-06-07T04:41:40.945Z,11.24
2019-06-07T04:42:44.766Z,11.39
2019-06-07T04:43:41.298Z,11.46
2019-06-07T04:44:42.565Z,11.51
2019-06-07T04:45:45.777Z,11.51
2019-06-07T04:46:42.718Z,11.61
2019-06-07T04:47:42.261Z,11.78
2019-06-07T04:48:43.257Z,11.75
2019-06-07T04:49:43.852Z,11.80
2019-06-07T04:50:43.473Z,11.79
2019-06-07T04:51:41.129Z,11.80
2019-06-07T04:52:42.786Z,11.88
2019-06-07T04:53:43.060Z,11.95
2019-06-07T04:54:45.548Z,12.05
2019-06-07T04:55:41.880Z,12.04
2019-06-07T04:56:44.112Z,12.02
2019-06-07T04:57:43.205Z,12.01
2019-06-07T04:58:41.477Z,12.07
2019-06-07T05:00:10.844Z,12.09
2019-06-07T05:00:53.988Z,12.02
2019-06-07T05:01:42.618Z,12.07
2019-06-07T05:02:40.903Z,12.05
2019-06-07T05:03:44.166Z,12.01
2019-06-07T05:04:42.400Z,12.13
2019-06-07T05:05:41.879Z,12.17
2019-06-07T05:06:40.362Z,12.13
2019-06-07T05:07:40.878Z,12.16
2019-06-07T05:08:43.602Z,12.24
2019-06-07T05:09:43.162Z,12.21
2019-06-07T05:10:43.472Z,12.24
2019-06-07T05:11:44.635Z,12.31
2019-06-07T05:12:44.009Z,12.34
2019-06-07T05:13:43.127Z,12.41
2019-06-07T05:14:42.357Z,12.52
2019-06-07T05:15:42.081Z,12.46
2019-06-07T05:16:43.299Z,12.57
2019-06-07T05:17:42.511Z,12.52
2019-06-07T05:18:41.626Z,12.53
2019-06-07T05:19:44.126Z,12.60
2019-06-07T05:20:44.070Z,12.60
2019-06-07T05:22:01.597Z,12.62
2019-06-07T05:22:44.906Z,12.68
2019-06-07T05:24:05.785Z,12.64
2019-06-07T05:24:41.524Z,12.64
2019-06-07T05:25:44.183Z,12.78
2019-06-07T05:26:42.590Z,12.79
2019-06-07T05:27:44.449Z,12.82
2019-06-07T05:28:42.728Z,12.82
2019-06-07T05:29:41.632Z,12.86
2019-06-07T05:31:09.065Z,12.93
2019-06-07T05:31:44.957Z,12.92
2019-06-07T05:32:45.314Z,12.85
2019-06-07T05:33:41.236Z,12.92
2019-06-07T05:34:42.442Z,12.95
2019-06-07T05:35:42.972Z,12.93
2019-06-07T05:36:41.754Z,13.01
2019-06-07T05:37:41.775Z,13.05
2019-06-07T05:38:44.160Z,13.10
2019-06-07T05:39:42.492Z,13.07
2019-06-07T05:40:42.853Z,13.07
2019-06-07T05:41:43.768Z,13.04
2019-06-07T05:42:42.798Z,13.10
2019-06-07T05:43:45.554Z,13.15
2019-06-07T05:44:43.615Z,13.19
2019-06-07T05:45:44.887Z,13.20
2019-06-07T05:46:43.397Z,13.28
2019-06-07T05:47:46.160Z,13.26
2019-06-07T05:48:40.784Z,13.15
2019-06-07T05:49:41.675Z,13.33
2019-06-07T05:50:49.912Z,13.28
2019-06-07T05:51:43.283Z,13.42
2019-06-07T05:52:43.879Z,13.48
2019-06-07T05:53:40.833Z,13.49
2019-06-07T05:54:40.453Z,13.54
2019-06-07T05:55:44.200Z,13.66
2019-06-07T05:56:41.099Z,13.69
2019-06-07T05:57:43.406Z,13.73
2019-06-07T05:58:41.874Z,13.75
2019-06-07T05:59:41.642Z,13.69
2019-06-07T06:00:41.502Z,13.73
2019-06-07T06:01:45.004Z,13.82
2019-06-07T06:03:00.121Z,13.89
2019-06-07T06:03:40.459Z,13.81
2019-06-07T06:04:40.230Z,13.82
2019-06-07T06:05:45.000Z,13.91
2019-06-07T06:06:44.353Z,13.89
2019-06-07T06:07:45.226Z,14.06
2019-06-07T06:08:41.868Z,14.20
2019-06-07T06:09:38.677Z,14.33
2019-06-07T06:10:40.369Z,14.64
2019-06-07T06:11:49.553Z,14.86
2019-06-07T06:12:45.196Z,15.13
2019-06-07T06:14:01.453Z,15.35
2019-06-07T06:14:42.304Z,15.39
2019-06-07T06:15:48.720Z,15.31
2019-06-07T06:16:40.490Z,15.20
2019-06-07T06:17:42.750Z,15.01
2019-06-07T06:18:40.731Z,14.96
2019-06-07T06:19:40.682Z,14.94
2019-06-07T06:21:06.851Z,15.02
2019-06-07T06:21:41.005Z,15.23
2019-06-07T06:22:43.492Z,15.28
2019-06-07T06:23:42.687Z,15.28
2019-06-07T06:24:39.464Z,15.49
2019-06-07T06:25:41.499Z,15.64
2019-06-07T06:26:46.323Z,15.64
2019-06-07T06:28:05.855Z,15.83
2019-06-07T06:28:40.163Z,16.02
2019-06-07T06:29:40.178Z,16.17
2019-06-07T06:30:38.457Z,16.28
2019-06-07T06:31:41.149Z,16.34
2019-06-07T06:32:42.867Z,16.34
2019-06-07T06:33:39.684Z,16.30
2019-06-07T06:34:40.084Z,16.31
2019-06-07T06:35:39.932Z,16.28
2019-06-07T06:36:39.907Z,16.23
2019-06-07T06:37:42.554Z,16.23
2019-06-07T06:38:39.712Z,16.17
2019-06-07T06:39:39.568Z,16.31
2019-06-07T06:40:40.830Z,16.14
2019-06-07T06:41:50.815Z,16.15
2019-06-07T06:42:39.754Z,16.15
2019-06-07T06:43:39.234Z,16.15
2019-06-07T06:44:41.748Z,16.11
2019-06-07T06:45:40.179Z,16.08
2019-06-07T06:46:43.979Z,16.02
2019-06-07T06:47:40.677Z,16.11
2019-06-07T06:48:40.906Z,16.11
2019-06-07T06:49:40.399Z,16.11
2019-06-07T06:50:38.731Z,16.17
2019-06-07T06:51:39.296Z,16.15
2019-06-07T06:52:42.220Z,16.20
2019-06-07T06:53:40.399Z,16.20
2019-06-07T06:54:42.989Z,16.24
2019-06-07T06:55:39.200Z,16.28
2019-06-07T06:56:39.701Z,16.28
2019-06-07T06:57:41.459Z,16.38
2019-06-07T06:59:21.912Z,16.34
2019-06-07T06:59:41.248Z,16.45
2019-06-07T07:00:46.349Z,16.38
2019-06-07T07:01:39.771Z,16.48
2019-06-07T07:03:26.978Z,16.39
2019-06-07T07:04:41.800Z,16.42
2019-06-07T07:05:38.118Z,16.42
2019-06-07T07:06:38.038Z,16.43
2019-06-07T07:07:38.028Z,16.38
2019-06-07T07:08:38.016Z,16.46
2019-06-07T07:09:38.011Z,16.60
2019-06-07T07:10:37.997Z,16.71
2019-06-07T07:11:52.293Z,16.81
2019-06-07T07:12:38.974Z,16.94
2019-06-07T07:13:37.962Z,16.85
2019-06-07T07:14:37.947Z,16.91
2019-06-07T07:15:37.951Z,17.07
2019-06-07T07:16:37.960Z,17.01
2019-06-07T07:17:50.707Z,17.12
2019-06-07T07:18:38.901Z,17.03
2019-06-07T07:19:37.889Z,17.06
2019-06-07T07:20:37.882Z,17.15
2019-06-07T07:21:37.866Z,17.16
2019-06-07T07:22:37.868Z,17.23
2019-06-07T07:23:37.873Z,17.36
2019-06-07T07:24:37.851Z,17.31
2019-06-07T07:25:37.823Z,17.36
2019-06-07T07:26:37.818Z,17.40
2019-06-07T07:27:37.812Z,17.38
2019-06-07T07:28:37.790Z,17.40
2019-06-07T07:29:37.806Z,17.46
2019-06-07T07:30:37.786Z,17.38
2019-06-07T07:31:37.756Z,17.46
2019-06-07T07:32:37.748Z,17.54
2019-06-07T07:34:23.958Z,17.49
2019-06-07T07:34:38.721Z,17.58
2019-06-07T07:35:37.753Z,17.75
2019-06-07T07:36:39.695Z,17.82
2019-06-07T07:37:37.694Z,17.82
2019-06-07T07:38:37.684Z,17.87
2019-06-07T07:39:37.667Z,17.92
2019-06-07T07:41:38.668Z,17.70
2019-06-07T07:42:37.634Z,17.63
2019-06-07T07:43:37.622Z,17.78
2019-06-07T07:44:37.622Z,17.96
2019-06-07T07:45:37.604Z,18.02
2019-06-07T07:46:37.624Z,18.10
2019-06-07T07:47:55.958Z,18.05
2019-06-07T07:48:38.571Z,18.07
2019-06-07T07:49:37.554Z,18.14
2019-06-07T07:50:37.541Z,18.18
2019-06-07T07:51:37.559Z,18.10
2019-06-07T07:52:37.522Z,18.12
2019-06-07T07:53:48.261Z,18.11
2019-06-07T07:54:38.496Z,18.30
2019-06-07T07:55:37.485Z,18.42
2019-06-07T07:56:37.474Z,18.52
2019-06-07T07:57:37.484Z,18.57
2019-06-07T07:58:37.498Z,18.72
2019-06-07T07:59:42.224Z,18.63
2019-06-07T08:01:07.094Z,18.60
2019-06-07T08:01:38.418Z,18.62
2019-06-07T08:02:37.443Z,18.73
2019-06-07T08:03:37.399Z,18.81
2019-06-07T08:05:12.021Z,18.80
2019-06-07T08:05:42.939Z,18.82
2019-06-07T08:06:38.361Z,18.85
2019-06-07T08:07:37.353Z,18.81
2019-06-07T08:08:37.344Z,18.78
2019-06-07T08:09:37.327Z,18.82
2019-06-07T08:10:37.316Z,18.87
2019-06-07T08:11:37.330Z,18.82
2019-06-07T08:13:00.775Z,18.84
2019-06-07T08:13:38.325Z,18.90
2019-06-07T08:14:37.276Z,18.95
2019-06-07T08:15:37.260Z,19.00
2019-06-07T08:16:37.251Z,18.94
2019-06-07T08:17:37.300Z,18.90
2019-06-07T08:18:37.227Z,18.92
2019-06-07T08:19:37.233Z,19.00
2019-06-07T08:20:37.209Z,19.06
2019-06-07T08:21:37.195Z,19.07
2019-06-07T08:22:37.188Z,19.04
2019-06-07T08:23:37.212Z,19.02
2019-06-07T08:24:37.189Z,19.07
2019-06-07T08:25:37.154Z,19.21
2019-06-07T08:26:37.134Z,19.14
2019-06-07T08:27:37.130Z,19.14
2019-06-07T08:28:37.113Z,19.16
2019-06-07T08:29:44.857Z,19.25
2019-06-07T08:31:02.397Z,19.25
2019-06-07T08:31:38.081Z,19.26
2019-06-07T08:32:37.086Z,19.33
2019-06-07T08:33:37.061Z,19.39
2019-06-07T08:34:37.054Z,19.44
2019-06-07T08:36:05.886Z,19.51
2019-06-07T08:36:42.268Z,19.51
2019-06-07T08:38:14.905Z,19.48
2019-06-07T08:38:47.540Z,19.51
2019-06-07T08:39:37.986Z,19.59
2019-06-07T08:40:37.030Z,19.77
2019-06-07T08:41:37.038Z,19.80
2019-06-07T08:42:59.105Z,19.78
2019-06-07T08:43:37.945Z,19.84
2019-06-07T08:44:36.936Z,19.80
2019-06-07T08:45:36.932Z,19.80
2019-06-07T08:46:36.966Z,19.76
2019-06-07T08:47:36.913Z,19.88
2019-06-07T08:48:36.896Z,19.88
2019-06-07T08:49:36.881Z,19.96
2019-06-07T08:50:36.880Z,20.01
2019-06-07T08:51:36.862Z,20.06
2019-06-07T08:52:36.847Z,20.05
2019-06-07T08:53:36.859Z,20.14
2019-06-07T08:54:37.005Z,20.10
2019-06-07T08:55:36.855Z,20.08
2019-06-07T08:56:36.843Z,20.05
2019-06-07T08:57:36.809Z,20.21
2019-06-07T08:58:36.783Z,20.21
2019-06-07T08:59:36.763Z,20.14
2019-06-07T09:00:47.027Z,20.33
2019-06-07T09:01:37.780Z,20.29
2019-06-07T09:02:36.744Z,20.36
2019-06-07T09:03:36.725Z,20.39
2019-06-07T09:04:36.714Z,20.51
2019-06-07T09:05:36.713Z,20.55
2019-06-07T09:07:37.685Z,20.47
2019-06-07T09:08:36.664Z,20.31
2019-06-07T09:09:36.660Z,20.24
2019-06-07T09:10:36.649Z,20.31
2019-06-07T09:11:36.667Z,20.39
2019-06-07T09:12:36.663Z,20.42
2019-06-07T09:13:36.618Z,20.43
2019-06-07T09:14:56.516Z,20.51
2019-06-07T09:15:37.579Z,20.52
2019-06-07T09:16:36.592Z,20.48
2019-06-07T09:17:36.581Z,20.50
2019-06-07T09:18:43.744Z,20.59
2019-06-07T09:19:37.551Z,20.50
2019-06-07T09:20:38.716Z,20.41
2019-06-07T09:21:36.569Z,20.47
2019-06-07T09:22:36.520Z,20.52
2019-06-07T09:23:36.545Z,20.51
2019-06-07T09:24:36.487Z,20.55
2019-06-07T09:25:55.882Z,20.66
2019-06-07T09:26:37.461Z,20.74
2019-06-07T09:27:36.481Z,20.70
2019-06-07T09:28:36.471Z,20.76
2019-06-07T09:29:36.450Z,20.87
2019-06-07T09:30:36.420Z,20.82
2019-06-07T09:31:51.910Z,20.89
2019-06-07T09:32:37.400Z,20.98
2019-06-07T09:33:36.386Z,21.12
2019-06-07T09:34:36.406Z,21.16
2019-06-07T09:35:36.407Z,21.17
2019-06-07T09:36:36.353Z,21.21
2019-06-07T09:38:04.150Z,21.14
2019-06-07T09:38:37.336Z,21.19
2019-06-07T09:39:36.328Z,21.17
2019-06-07T09:40:36.340Z,21.24
2019-06-07T09:41:47.759Z,21.25
2019-06-07T09:42:37.312Z,21.35
2019-06-07T09:44:37.284Z,21.40
2019-06-07T09:45:36.293Z,21.49
2019-06-07T09:46:36.246Z,21.54
2019-06-07T09:47:36.247Z,21.38
2019-06-07T09:49:37.199Z,21.50
2019-06-07T09:50:36.199Z,21.58
2019-06-07T09:51:36.191Z,21.50
2019-06-07T09:52:57.208Z,21.53
2019-06-07T09:53:37.195Z,21.64
2019-06-07T09:55:05.764Z,21.62
2019-06-07T09:55:37.200Z,21.67
2019-06-07T09:56:36.163Z,21.77
2019-06-07T09:57:36.115Z,21.82
2019-06-07T09:58:53.597Z,21.79
2019-06-07T09:59:37.087Z,21.82
2019-06-07T10:00:41.634Z,21.80
2019-06-07T10:01:37.126Z,21.82
2019-06-07T10:02:36.059Z,22.02
2019-06-07T10:03:36.070Z,22.09
2019-06-07T10:04:36.035Z,22.20
2019-06-07T10:05:36.023Z,22.46
2019-06-07T10:06:36.047Z,22.45
2019-06-07T10:07:36.008Z,22.49
2019-06-07T10:10:37.017Z,22.65
2019-06-07T10:11:36.066Z,22.57
2019-06-07T10:12:36.047Z,22.49
2019-06-07T10:13:35.939Z,22.46
2019-06-07T10:14:35.922Z,22.33
2019-06-07T10:15:35.914Z,22.27
2019-06-07T10:16:46.280Z,22.25
2019-06-07T10:17:36.932Z,22.21
2019-06-07T10:18:35.877Z,22.25
2019-06-07T10:19:35.900Z,22.30
2019-06-07T10:20:35.858Z,22.31
2019-06-07T10:21:35.843Z,22.40
2019-06-07T10:22:35.842Z,22.45
2019-06-07T10:23:35.833Z,22.52
2019-06-07T10:24:35.822Z,22.46
2019-06-07T10:25:35.818Z,22.54
2019-06-07T10:26:35.788Z,22.47
2019-06-07T10:27:35.796Z,22.47
2019-06-07T10:28:35.798Z,22.61
2019-06-07T10:29:35.759Z,22.60
2019-06-07T10:30:35.801Z,22.70
2019-06-07T10:31:35.731Z,22.80
2019-06-07T10:32:35.721Z,22.79
2019-06-07T10:33:35.713Z,22.65
2019-06-07T10:34:35.710Z,22.73
2019-06-07T10:35:35.689Z,22.68
2019-06-07T10:36:35.691Z,22.73
2019-06-07T10:37:35.667Z,22.72
2019-06-07T10:38:35.655Z,22.80
2019-06-07T10:39:48.144Z,22.80
2019-06-07T10:40:36.633Z,22.83
2019-06-07T10:41:35.620Z,22.92
2019-06-07T10:42:35.634Z,22.91
2019-06-07T10:43:35.597Z,22.95
2019-06-07T10:44:35.586Z,22.98
2019-06-07T10:45:35.578Z,23.13
2019-06-07T10:46:35.565Z,23.17
2019-06-07T10:47:35.555Z,23.20
2019-06-07T10:48:35.561Z,23.35
2019-06-07T10:49:35.530Z,23.40
2019-06-07T10:50:35.588Z,23.33
2019-06-07T10:51:35.507Z,23.32
2019-06-07T10:52:35.499Z,23.32
2019-06-07T10:53:35.494Z,23.40
2019-06-07T10:54:35.524Z,23.43
2019-06-07T10:55:35.462Z,23.35
2019-06-07T10:56:35.466Z,23.39
2019-06-07T10:57:35.438Z,23.47
2019-06-07T10:58:35.432Z,23.54
2019-06-07T10:59:35.425Z,23.60
2019-06-07T11:00:35.441Z,23.55
2019-06-07T11:01:35.427Z,23.54
2019-06-07T11:02:35.392Z,23.51
2019-06-07T11:03:35.372Z,23.53
2019-06-07T11:04:35.365Z,23.47
2019-06-07T11:05:35.364Z,23.47
2019-06-07T11:06:35.349Z,23.43
2019-06-07T11:07:35.350Z,23.48
2019-06-07T11:08:35.328Z,23.51
2019-06-07T11:09:35.313Z,23.47
2019-06-07T11:10:35.300Z,23.55
2019-06-07T11:11:35.313Z,23.63
2019-06-07T11:12:35.312Z,23.66
2019-06-07T11:13:35.268Z,23.61
2019-06-07T11:14:35.258Z,23.65
2019-06-07T11:15:35.242Z,23.72
2019-06-07T11:16:35.233Z,23.73
2019-06-07T11:17:35.239Z,23.90
2019-06-07T11:18:35.229Z,24.05
2019-06-07T11:19:35.198Z,24.15
2019-06-07T11:20:35.361Z,24.12
2019-06-07T11:21:35.189Z,24.28
2019-06-07T11:22:35.187Z,24.27
2019-06-07T11:23:35.189Z,24.40
2019-06-07T11:24:35.150Z,24.39
2019-06-07T11:25:35.149Z,24.42
2019-06-07T11:26:35.126Z,24.35
2019-06-07T11:27:35.111Z,24.40
2019-06-07T11:28:35.095Z,24.32
2019-06-07T11:29:35.098Z,24.40
2019-06-07T11:30:35.096Z,24.32
2019-06-07T11:31:35.064Z,24.32
2019-06-07T11:32:35.053Z,24.32
2019-06-07T11:33:35.043Z,24.34
2019-06-07T11:34:35.065Z,24.55
2019-06-07T11:35:35.038Z,24.46
2019-06-07T11:36:35.035Z,24.60
2019-06-07T11:37:35.004Z,24.64
2019-06-07T11:38:34.985Z,24.67
2019-06-07T11:39:34.977Z,24.64
2019-06-07T11:40:36.036Z,24.64
2019-06-07T11:41:34.955Z,24.67
2019-06-07T11:42:34.963Z,24.69
2019-06-07T11:43:34.932Z,24.78
2019-06-07T11:44:34.924Z,24.84
2019-06-07T11:45:34.943Z,24.81
2019-06-07T11:46:34.902Z,24.96
2019-06-07T11:47:34.888Z,24.96
2019-06-07T11:48:34.893Z,25.10
2019-06-07T11:49:34.896Z,25.13
2019-06-07T11:50:34.854Z,25.18
2019-06-07T11:51:34.860Z,25.25
2019-06-07T11:52:34.835Z,25.25
2019-06-07T11:53:34.820Z,25.24
2019-06-07T11:54:34.861Z,25.18
2019-06-07T11:55:34.814Z,25.08
2019-06-07T11:56:35.783Z,24.88
2019-06-07T11:57:34.781Z,24.95
2019-06-07T11:58:34.766Z,24.99
2019-06-07T11:59:34.765Z,25.05
2019-06-07T12:00:34.769Z,25.06
2019-06-07T12:01:37.283Z,25.13
2019-06-07T12:02:34.737Z,25.21
2019-06-07T12:03:34.718Z,25.27
2019-06-07T12:04:35.266Z,25.28
2019-06-07T12:05:34.690Z,25.33
2019-06-07T12:06:34.697Z,25.18
2019-06-07T12:07:34.672Z,25.23
2019-06-07T12:08:34.672Z,24.98
2019-06-07T12:09:34.684Z,24.95
2019-06-07T12:10:42.646Z,24.90
2019-06-07T12:11:35.627Z,24.87
2019-06-07T12:12:34.627Z,24.78
2019-06-07T12:13:34.605Z,24.93
2019-06-07T12:14:34.604Z,24.96
2019-06-07T12:15:34.591Z,25.03
2019-06-07T12:16:34.577Z,25.15
2019-06-07T12:17:34.557Z,25.17
2019-06-07T12:18:34.564Z,25.30
2019-06-07T12:19:34.535Z,25.28
2019-06-07T12:20:34.563Z,25.39
2019-06-07T12:21:34.514Z,25.42
2019-06-07T12:22:34.502Z,25.42
2019-06-07T12:23:34.492Z,25.54
2019-06-07T12:24:34.504Z,25.55
2019-06-07T12:25:34.472Z,25.60
2019-06-07T12:26:34.466Z,25.75
2019-06-07T12:27:34.453Z,25.72
2019-06-07T12:28:35.293Z,25.77
2019-06-07T12:29:34.428Z,25.70
2019-06-07T12:30:34.422Z,25.75
2019-06-07T12:31:34.438Z,25.77
2019-06-07T12:32:34.393Z,25.83
2019-06-07T12:33:34.449Z,25.80
2019-06-07T12:34:34.371Z,25.98
2019-06-07T12:35:34.363Z,26.01
2019-06-07T12:36:34.348Z,25.97
2019-06-07T12:37:43.987Z,25.97
2019-06-07T12:38:35.352Z,25.99
2019-06-07T12:39:34.319Z,26.06
2019-06-07T12:40:34.342Z,25.98
2019-06-07T12:41:34.301Z,25.97
2019-06-07T12:42:34.321Z,26.02
2019-06-07T12:43:34.288Z,25.83
2019-06-07T12:44:34.257Z,25.88
2019-06-07T12:45:44.516Z,25.83
2019-06-07T12:46:35.245Z,25.95
2019-06-07T12:47:34.276Z,25.87
2019-06-07T12:48:34.227Z,25.83
2019-06-07T12:49:34.204Z,25.82
2019-06-07T12:50:42.738Z,25.83
2019-06-07T12:51:35.195Z,25.91
2019-06-07T12:52:34.174Z,25.94
2019-06-07T12:53:34.256Z,25.97
2019-06-07T12:54:34.171Z,25.87
2019-06-07T12:55:34.142Z,25.80
2019-06-07T12:56:34.155Z,25.95
2019-06-07T12:57:34.120Z,25.83
2019-06-07T12:58:37.421Z,25.90
2019-06-07T12:59:35.092Z,25.95